Tuesday, September 25, 2018, 10:55 PM GMT
Back to Local

CYPQ, Peterborough Airport

Location: , , Canada Lat: 44.233
Local Time: 10:55 PM GMT (22:55 GMT) Lon: -78.367
Time Zone: GMT Elev: 626 ft

Show me the last for .
Show Decoded

2018-09-25 22:00 METAR CYPQ 252200Z AUTO 16003KT 5SM BR OVC006 18/18 A2995 RMK SLP146 DENSITY ALT
                 1000FT =
2018-09-25 21:52 METAR CYPQ 252152Z AUTO 17004KT 130V190 9SM OVC006 18/18 A2995 RMK SLP146
                 DENSITY ALT 1000FT =
2018-09-25 21:25 METAR CYPQ 252125Z AUTO 14004KT 6SM BR OVC004 18/18 A2996 RMK SLP148 DENSITY ALT
                 1000FT
2018-09-25 21:10 METAR CYPQ 252110Z AUTO 15004KT 5SM BR OVC004 18/18 A2996 RMK SLP148 DENSITY ALT
                 1000FT =
2018-09-25 21:00 METAR CYPQ 252100Z AUTO 15004KT 3SM BR BKN006 BKN009 OVC014 18/18 A2996 RMK
                 SLP149 DENSITY ALT 1000FT =
2018-09-25 20:39 METAR CYPQ 252039Z AUTO 14005KT 130V190 3SM BR BKN006 BKN013 OVC023 18/18 A2997
                 RMK SLP152 DENSITY ALT 1000FT =
2018-09-25 20:33 METAR CYPQ 252033Z AUTO 17005KT 2 1/2SM BR BKN006 OVC013 18/17 A2998 RMK SLP154
                 DENSITY ALT 1000FT =
2018-09-25 20:00 METAR CYPQ 252000Z AUTO 17008KT 130V200 5SM BR OVC006 18/17 A2999 RMK SLP157
                 DENSITY ALT 1000FT =
2018-09-25 19:37 METAR CYPQ 251937Z AUTO 16005KT 5SM BR OVC006 18/17 A2999 RMK SLP158 DENSITY ALT
                 1000FT =
2018-09-25 19:35 METAR CYPQ 251935Z AUTO 15008KT 6SM BR BKN006 OVC010 18/17 A2999 RMK SLP158
                 DENSITY ALT 1000FT =
2018-09-25 19:26 METAR CYPQ 251926Z AUTO 15007KT 9SM OVC008 18/17 A2999 RMK SLP159 DENSITY ALT
                 1000FT =
2018-09-25 19:21 METAR CYPQ 251921Z AUTO 15006KT 9SM BKN006 OVC010 18/17 A2999 RMK SLP158 DENSITY
                 ALT 1000FT =
2018-09-25 19:20 METAR CYPQ 251920Z AUTO 15006KT 9SM OVC008 18/17 A2999 RMK PRESFR SLP158 DENSITY
                 ALT 1000FT =
2018-09-25 19:09 METAR CYPQ 251909Z AUTO 16006KT 130V190 6SM BR BKN005 OVC012 17/17 A3000 RMK
                 SLP162 DENSITY ALT 900FT =
2018-09-25 19:00 METAR CYPQ 251900Z AUTO 16006KT 3SM BR OVC005 17/17 A3000 RMK SLP163 DENSITY ALT
                 900FT =
2018-09-25 18:29 METAR CYPQ 251829Z AUTO 15008KT 5SM BR OVC007 17/17 A3001 RMK SLP166 DENSITY ALT
                 900FT =
2018-09-25 18:19 METAR CYPQ 251819Z AUTO 16007KT 6SM BR OVC007 17/17 A3002 RMK SLP167 DENSITY ALT
                 900FT =
2018-09-25 18:02 METAR CYPQ 251802Z AUTO 16009KT 5SM BR OVC007 17/17 A3002 RMK SLP169 DENSITY ALT
                 900FT =
2018-09-25 18:00 METAR CYPQ 251800Z AUTO 15009KT 6SM BR OVC005 17/17 A3002 RMK SLP169 DENSITY ALT
                 900FT =
2018-09-25 17:47 METAR CYPQ 251747Z AUTO 17007KT 6SM BR OVC005 17/17 A3003 RMK SLP171 DENSITY ALT
                 800FT =
2018-09-25 17:40 METAR CYPQ 251740Z AUTO 15010KT 5SM BR OVC005 17/17 A3002 RMK SLP170 DENSITY ALT
                 800FT =
2018-09-25 17:28 METAR CYPQ 251728Z AUTO 16009KT 3SM -RA BR OVC007 17/17 A3003 RMK SLP172 DENSITY
                 ALT 800FT =
2018-09-25 17:02 METAR CYPQ 251702Z AUTO 14008KT 5SM BR OVC007 17/16 A3004 RMK SLP175 DENSITY ALT
                 800FT =
2018-09-25 17:00 METAR CYPQ 251700Z AUTO 16008KT 6SM BR OVC007 17/16 A3004 RMK SLP175 DENSITY ALT
                 800FT =
2018-09-25 16:30 METAR CYPQ 251630Z AUTO 15009G16KT 6SM BR OVC007 16/16 A3005 RMK SLP178 DENSITY
                 ALT 700FT =
2018-09-25 16:13 METAR CYPQ 251613Z AUTO 15010KT 5SM BR OVC007 16/16 A3005 RMK SLP179 DENSITY ALT
                 700FT =
2018-09-25 16:00 METAR CYPQ 251600Z AUTO 15010G15KT 6SM BR OVC007 16/16 A3006 RMK SLP182 DENSITY
                 ALT 700FT =
2018-09-25 15:44 METAR CYPQ 251544Z AUTO 15007KT 7SM OVC007 16/15 A3007 RMK SLP185 =
2018-09-25 15:00 METAR CYPQ 251500Z AUTO 15007KT 6SM -RA BR OVC007 15/15 A3008 RMK SLP188 =
2018-09-25 14:57 METAR CYPQ 251457Z AUTO 15005KT 6SM -RA BR OVC007 15/15 A3008 RMK SLP189 =
2018-09-25 14:38 METAR CYPQ 251438Z AUTO 14009KT 5SM -RA BR OVC007 15/15 A3009 RMK SLP191 =
2018-09-25 14:33 METAR CYPQ 251433Z AUTO 15008G17KT 5SM -RA BR OVC009 15/15 A3009 RMK SLP192 =
2018-09-25 14:00 METAR CYPQ 251400Z AUTO 14008KT 7SM -RA BKN009 OVC013 15/15 A3010 RMK SLP194 =
2018-09-25 13:48 METAR CYPQ 251348Z AUTO 14008KT 7SM -RA BKN009 OVC017 15/15 A3010 RMK SLP197 =
2018-09-25 13:47 METAR CYPQ 251347Z AUTO 14007KT 7SM -RA SCT007 BKN011 OVC017 15/15 A3010 RMK
                 SLP197 =
2018-09-25 13:43 METAR CYPQ 251343Z AUTO 15010KT 6SM -RA BR BKN007 OVC013 15/15 A3011 RMK SLP198
                 =
2018-09-25 13:42 METAR CYPQ 251342Z AUTO 15010KT 6SM -RA BR SCT007 BKN011 OVC016 15/15 A3011 RMK
                 SLP198 =
2018-09-25 13:38 METAR CYPQ 251338Z AUTO 15009KT 6SM -RA BR BKN009 OVC013 15/15 A3011 RMK SLP198
                 =
2018-09-25 13:30 METAR CYPQ 251330Z AUTO 14009G17KT 5SM -RA BR BKN009 OVC021 15/14 A3011 RMK
                 SLP199
2018-09-25 13:27 METAR CYPQ 251327Z AUTO 15009G17KT 5SM -RA BR BKN007 BKN012 OVC021 15/14 A3011
                 RMK SLP199 =
2018-09-25 13:24 METAR CYPQ 251324Z AUTO 14009G17KT 6SM -RA BR BKN007 BKN012 OVC021 15/14 A3011
                 RMK SLP199 =
2018-09-25 13:21 METAR CYPQ 251321Z AUTO 15012G17KT 7SM -RA SCT007 BKN012 OVC021 15/14 A3011 RMK
                 SLP199 =
2018-09-25 13:16 METAR CYPQ 251316Z AUTO 15011KT 6SM -RA BR BKN009 OVC014 15/14 A3011 RMK SLP200
                 =
2018-09-25 13:00 METAR CYPQ 251300Z AUTO 15012G18KT 5SM -RA BR BKN009 BKN012 OVC019 15/14 A3011
                 RMK SLP201 =
2018-09-25 12:41 METAR CYPQ 251241Z AUTO 15009G16KT 5SM -RA BR BKN009 OVC018 15/14 A3012 RMK
                 SLP203 =
2018-09-25 12:40 METAR CYPQ 251240Z AUTO 15011G16KT 5SM -RA BR SCT007 BKN011 BKN016 OVC021 15/14
                 A3012 RMK SLP203 =
2018-09-25 12:38 METAR CYPQ 251238Z AUTO 15012KT 5SM -RA BR BKN009 OVC016 15/14 A3012 RMK SLP203
                 =
2018-09-25 12:37 METAR CYPQ 251237Z AUTO 15012KT 5SM -RA BR SCT007 BKN011 OVC016 15/14 A3012 RMK
                 SLP203 =
2018-09-25 12:36 METAR CYPQ 251236Z AUTO 16012KT 4SM -RA BR BKN009 OVC016 15/14 A3012 RMK SLP203
                 =
2018-09-25 12:26 METAR CYPQ 251226Z AUTO 15009G15KT 5SM -RA BR BKN007 BKN013 OVC018 15/14 A3012
                 RMK SLP204 =
2018-09-25 12:02 METAR CYPQ 251202Z AUTO 15008KT 7SM -RA BKN007 BKN017 OVC026 14/14 A3013 RMK
                 SLP207 =
2018-09-25 12:01 METAR CYPQ 251201Z AUTO 14007KT 7SM -RA SCT007 BKN010 BKN017 OVC026 14/14 A3013
                 RMK SLP207 =
2018-09-25 12:00 METAR CYPQ 251200Z AUTO 15009KT 7SM -RA BKN007 BKN013 BKN017 OVC026 14/14 A3013
                 RMK SLP207 =
2018-09-25 11:53 METAR CYPQ 251153Z AUTO 14008KT 6SM -RA BR BKN007 BKN013 BKN022 OVC028 14/14
                 A3014 RMK SLP208 =
2018-09-25 11:49 METAR CYPQ 251149Z AUTO 15007KT 5SM -RA BR BKN007 OVC024 14/14 A3014 RMK SLP209
                 =
2018-09-25 11:20 METAR CYPQ 251120Z AUTO 15010KT 5SM -RA BR BKN009 BKN012 OVC028 14/14 A3014 RMK
                 SLP211 =
2018-09-25 11:16 METAR CYPQ 251116Z AUTO 14008KT 5SM -RA BR BKN007 BKN012 OVC028 14/14 A3014 RMK
                 SLP211 =
2018-09-25 11:14 METAR CYPQ 251114Z AUTO 14008G15KT 5SM -RA BR SCT007 BKN012 OVC028 14/14 A3014
                 RMK SLP211 =
2018-09-25 11:12 METAR CYPQ 251112Z AUTO 14008G15KT 6SM -RA BR SCT010 BKN014 OVC028 14/14 A3014
                 RMK SLP211 =
2018-09-25 11:00 METAR CYPQ 251100Z AUTO 14010KT 4SM -RA BR FEW006 BKN010 BKN014 OVC024 14/14
                 A3015 RMK SLP213 =
2018-09-25 10:59 METAR CYPQ 251059Z AUTO 15010KT 3SM -RA BR BKN010 OVC024 14/14 A3015 RMK SLP213
                 =
2018-09-25 10:58 METAR CYPQ 251058Z AUTO 15009KT 3SM -RA BR BKN008 BKN014 OVC024 14/14 A3015 RMK
                 SLP213 =
2018-09-25 10:57 METAR CYPQ 251057Z AUTO 15009KT 3SM -RA BR SCT008 BKN012 OVC022 14/14 A3015 RMK
                 SLP213 =
2018-09-25 10:53 METAR CYPQ 251053Z AUTO 15009KT 3SM -RA BR BKN008 BKN014 OVC020 14/14 A3015 RMK
                 SLP214 =
2018-09-25 10:51 METAR CYPQ 251051Z AUTO 15011KT 4SM -RA BR SCT008 BKN014 OVC020 14/14 A3015 RMK
                 SLP214 =
2018-09-25 10:50 METAR CYPQ 251050Z AUTO 15010KT 4SM -RA BR BKN008 BKN014 OVC020 14/14 A3015 RMK
                 SLP214 =
2018-09-25 10:46 METAR CYPQ 251046Z AUTO 15008KT 4SM -RA BR SCT008 BKN014 OVC020 14/14 A3015 RMK
                 SLP214 =
2018-09-25 10:30 METAR CYPQ 251030Z AUTO 15009KT 4SM -RA BR BKN008 BKN014 OVC028 14/14 A3015 RMK
                 SLP214 =
2018-09-25 10:28 METAR CYPQ 251028Z AUTO 15007KT 3SM -RA BR SCT008 BKN011 BKN016 OVC025 14/14
                 A3016 RMK SLP215 =
2018-09-25 10:26 METAR CYPQ 251026Z AUTO 15010KT 3SM -RA BR BKN008 OVC016 14/14 A3016 RMK SLP215
                 =
2018-09-25 10:25 METAR CYPQ 251025Z AUTO 14008KT 3SM -RA BR SCT008 BKN011 BKN016 OVC025 14/14
                 A3016 RMK SLP215 =
2018-09-25 10:08 METAR CYPQ 251008Z AUTO 15012KT 5SM -RA BR BKN008 BKN013 OVC024 14/14 A3016 RMK
                 SLP216 =
2018-09-25 10:02 METAR CYPQ 251002Z AUTO 15010G15KT 6SM -RA BR BKN008 BKN013 BKN025 OVC034 14/14
                 A3016 RMK SLP216 =
2018-09-25 10:01 METAR CYPQ 251001Z AUTO 15010G15KT 5SM -RA BR SCT008 BKN011 BKN025 OVC034 14/14
                 A3016 RMK SLP216 =
2018-09-25 10:00 METAR CYPQ 251000Z AUTO 15010G15KT 5SM -RA BR BKN008 BKN013 BKN025 OVC034 14/14
                 A3016 RMK SLP216 =
2018-09-25 09:58 METAR CYPQ 250958Z AUTO 15009G16KT 4SM -RA BR BKN008 BKN015 BKN025 OVC032 14/14
                 A3016 RMK SLP216 =
2018-09-25 09:36 METAR CYPQ 250936Z AUTO 15014G19KT 5SM -RA BR SCT010 SCT016 BKN021 OVC031 14/14
                 A3016 RMK SLP217 =
2018-09-25 09:31 METAR CYPQ 250931Z AUTO 15010G19KT 6SM -RA BR SCT013 BKN021 OVC029 14/14 A3016
                 RMK SLP217 =
2018-09-25 09:23 METAR CYPQ 250923Z AUTO 15011G16KT 5SM -RA BR FEW011 BKN017 BKN024 OVC029 14/14
                 A3016 RMK SLP217 =
2018-09-25 09:00 METAR CYPQ 250900Z AUTO 15011G18KT 9SM -RA SCT010 OVC017 14/14 A3017 RMK SLP219
                 =
2018-09-25 08:00 METAR CYPQ 250800Z AUTO 14011G16KT 9SM -RA BKN010 BKN023 OVC030 14/14 A3019 RMK
                 SLP226 =
2018-09-25 07:00 METAR CYPQ 250700Z AUTO 15013G19KT 9SM -RA BKN010 OVC016 14/14 A3021 RMK SLP232
                 =
2018-09-25 06:00 METAR CYPQ 250600Z AUTO 14008KT 9SM -RA BKN010 OVC022 14/14 A3023 RMK SLP241 =
2018-09-25 05:25 METAR CYPQ 250525Z AUTO 13007G15KT 9SM -RA SCT014 BKN019 OVC026 15/13 A3024 RMK
                 SLP244 =
2018-09-25 05:00 METAR CYPQ 250500Z AUTO 13009KT 9SM -RA BKN028 OVC035 15/13 A3025 RMK SLP246 =
2018-09-25 04:45 METAR CYPQ 250445Z AUTO 14008G16KT 9SM -RA BKN035 OVC044 15/13 A3025 RMK SLP247
                 =
2018-09-25 04:00 METAR CYPQ 250400Z AUTO 13008KT 9SM OVC037 15/12 A3026 RMK SLP250 =
2018-09-25 03:27 METAR CYPQ 250327Z AUTO 13010G17KT 9SM BKN041 OVC050 15/13 A3027 RMK SLP253 =
2018-09-25 03:00 METAR CYPQ 250300Z AUTO 14010KT 9SM -RA BKN046 OVC055 16/13 A3028 RMK SLP256 =
2018-09-25 02:55 METAR CYPQ 250255Z AUTO 13008KT 9SM -RA BKN046 OVC055 16/13 A3028 RMK SLP257 =
2018-09-25 02:00 METAR CYPQ 250200Z AUTO 12008G17KT 9SM OVC046 16/13 A3028 RMK SLP258 =
2018-09-25 01:00 METAR CYPQ 250100Z AUTO 09004KT 9SM OVC040 16/11 A3029 RMK SLP260 =
2018-09-25 00:00 METAR CYPQ 250000Z AUTO 10007KT 060V140 9SM OVC042 16/11 A3029 RMK SLP264 =
2018-09-24 23:00 METAR CYPQ 242300Z AUTO 10007KT 9SM FEW040 16/11 A3030 RMK SLP265 =

Support USWX by starting your Amazon purchase here.